Terminal Aerodrome Forecast
Issued by NWS Memphis, TN

Home | Current Version | Previous Version | Text Only | Print | Product List | Glossary On
Versions: 1 2 3 4 5 6 7 8 9 10 11 12 13 14 15 16 17 18 19 20
000
FTUS44 KMEG 212000 AAB
TAFMKL
TAF AMD
KMKL 212000Z 2120/2218 31012KT P6SM SCT040
     FM212300 34009KT P6SM SKC
     FM220200 36005KT P6SM SKC
     FM221400 02009KT P6SM SKC=

USA.gov is the U.S. government's official web portal to all federal, state and local government web resources and services.